createdAt,value
2022-08-22T00:02:31.021Z,10.50
2022-08-22T00:02:41.976Z,9.77
2022-08-22T00:03:04.188Z,11.07
2022-08-22T00:03:09.131Z,8.60
2022-08-22T00:03:11.173Z,11.73
2022-08-22T00:05:26.569Z,11.52
2022-08-22T00:08:00.805Z,10.13
2022-08-22T00:10:47.434Z,14.07
2022-08-22T00:13:22.666Z,10.37
2022-08-22T00:16:05.396Z,11.82
2022-08-22T00:18:42.951Z,9.18
2022-08-22T00:21:15.004Z,9.27
2022-08-22T00:23:50.575Z,10.70
2022-08-22T00:26:35.971Z,7.30
2022-08-22T00:29:07.495Z,11.35
2022-08-22T00:31:39.921Z,11.20
2022-08-22T00:34:09.454Z,11.57
2022-08-22T00:36:43.422Z,8.23
2022-08-22T00:39:17.599Z,10.07
2022-08-22T00:42:15.026Z,9.70
2022-08-22T00:45:17.005Z,10.50
2022-08-22T00:47:51.381Z,9.95
2022-08-22T00:50:40.463Z,9.57
2022-08-22T00:53:54.529Z,8.35
2022-08-22T00:56:41.368Z,11.07
2022-08-22T00:59:29.299Z,18.98
2022-08-22T01:02:28.612Z,10.38
2022-08-22T01:05:21.859Z,12.65
2022-08-22T01:07:59.678Z,11.35
2022-08-22T01:10:43.379Z,10.20
2022-08-22T01:13:38.088Z,9.55
2022-08-22T01:16:38.526Z,13.00
2022-08-22T01:19:29.546Z,8.88
2022-08-22T01:22:24.393Z,14.05
2022-08-22T01:25:18.391Z,10.85
2022-08-22T01:28:05.038Z,10.50
2022-08-22T01:30:54.493Z,14.30
2022-08-22T01:34:03.209Z,11.30
2022-08-22T01:37:11.830Z,9.23
2022-08-22T01:40:02.658Z,11.55
2022-08-22T01:43:07.261Z,12.38
2022-08-22T01:45:55.490Z,10.40
2022-08-22T01:48:38.142Z,13.02
2022-08-22T01:51:29.428Z,15.25
2022-08-22T01:54:07.121Z,9.52
2022-08-22T01:56:39.870Z,10.13
2022-08-22T01:59:15.031Z,13.07
2022-08-22T02:01:51.605Z,10.65
2022-08-22T02:04:36.896Z,10.77
2022-08-22T02:07:14.703Z,11.00
2022-08-22T02:10:11.282Z,10.27
2022-08-22T02:12:41.334Z,12.35
2022-08-22T02:15:14.908Z,13.70
2022-08-22T02:17:50.968Z,9.85
2022-08-22T02:20:24.331Z,10.10
2022-08-22T02:23:15.942Z,8.57
2022-08-22T02:26:08.152Z,11.70
2022-08-22T02:28:58.100Z,13.07
2022-08-22T02:31:53.110Z,11.85
2022-08-22T02:34:38.164Z,11.27
2022-08-22T02:37:15.634Z,14.32
2022-08-22T02:40:10.329Z,14.85
2022-08-22T02:42:42.035Z,12.77
2022-08-22T02:45:38.948Z,12.25
2022-08-22T02:48:20.154Z,9.93
2022-08-22T02:51:10.021Z,9.80
2022-08-22T02:53:39.446Z,11.20
2022-08-22T02:56:18.756Z,12.77
2022-08-22T02:59:00.114Z,9.82
2022-08-22T03:01:29.863Z,11.98
2022-08-22T03:04:30.741Z,14.07
2022-08-22T03:07:06.375Z,10.98
2022-08-22T03:09:40.115Z,9.30
2022-08-22T03:12:19.306Z,11.05
2022-08-22T03:15:03.234Z,10.18
2022-08-22T03:17:40.414Z,11.05
2022-08-22T03:20:13.935Z,11.35
2022-08-22T03:22:43.745Z,11.55
2022-08-22T03:25:38.232Z,12.25
2022-08-22T03:28:18.359Z,11.75
2022-08-22T03:30:55.982Z,11.43
2022-08-22T03:33:25.970Z,11.90
2022-08-22T03:36:04.110Z,15.65
2022-08-22T03:38:33.814Z,10.77
2022-08-22T03:41:24.455Z,11.93
2022-08-22T03:44:15.901Z,11.88
2022-08-22T03:46:55.783Z,11.68
2022-08-22T03:49:58.937Z,11.20
2022-08-22T03:53:04.424Z,9.85
2022-08-22T03:55:52.656Z,10.07
2022-08-22T03:58:48.487Z,12.27
2022-08-22T04:01:53.545Z,11.68
2022-08-22T04:04:33.311Z,10.98
2022-08-22T04:07:31.582Z,11.50
2022-08-22T04:10:36.556Z,9.50
2022-08-22T04:13:28.230Z,11.70
2022-08-22T04:16:14.837Z,8.88
2022-08-22T04:18:56.399Z,12.43
2022-08-22T04:21:47.809Z,11.60
2022-08-22T04:24:30.182Z,8.68
2022-08-22T04:27:20.292Z,9.20
2022-08-22T04:30:06.927Z,11.68
2022-08-22T04:32:41.488Z,13.20
2022-08-22T04:35:16.270Z,10.40
2022-08-22T04:37:58.658Z,12.77
2022-08-22T04:40:38.990Z,13.65
2022-08-22T04:43:41.374Z,20.40
2022-08-22T04:46:20.011Z,18.25
2022-08-22T04:48:58.709Z,14.25
2022-08-22T04:51:33.486Z,17.55
2022-08-22T04:54:15.428Z,19.80
2022-08-22T04:56:54.734Z,14.80
2022-08-22T04:59:24.993Z,13.50
2022-08-22T05:01:59.750Z,12.25
2022-08-22T05:04:33.526Z,17.88
2022-08-22T05:07:15.498Z,12.20
2022-08-22T05:09:48.404Z,10.40
2022-08-22T05:12:20.220Z,14.60
2022-08-22T05:14:54.400Z,14.07
2022-08-22T05:17:27.583Z,10.45
2022-08-22T05:20:00.327Z,12.25
2022-08-22T05:22:37.927Z,16.70
2022-08-22T05:25:12.832Z,15.02
2022-08-22T05:27:44.614Z,26.05
2022-08-22T05:30:16.352Z,18.88
2022-08-22T05:32:48.862Z,26.98
2022-08-22T05:35:18.305Z,22.08
2022-08-22T05:37:48.859Z,24.23
2022-08-22T05:40:26.052Z,25.45
2022-08-22T05:42:54.781Z,24.48
2022-08-22T05:45:23.162Z,23.90
2022-08-22T05:47:57.332Z,18.13
2022-08-22T05:50:40.320Z,28.20
2022-08-22T05:53:29.986Z,19.33
2022-08-22T05:56:09.007Z,30.75
2022-08-22T05:58:42.714Z,16.98
2022-08-22T06:01:30.108Z,19.73
2022-08-22T06:04:17.083Z,29.58
2022-08-22T06:06:56.332Z,26.08
2022-08-22T06:10:06.990Z,15.52
2022-08-22T06:12:43.289Z,30.10
2022-08-22T06:15:21.076Z,17.77
2022-08-22T06:17:55.801Z,17.40
2022-08-22T06:20:47.696Z,16.40
2022-08-22T06:23:29.301Z,17.73
2022-08-22T06:26:00.142Z,17.33
2022-08-22T06:28:32.751Z,11.63
2022-08-22T06:31:06.278Z,18.90
2022-08-22T06:33:38.389Z,12.65
2022-08-22T06:36:30.510Z,13.35
2022-08-22T06:39:23.127Z,10.65
2022-08-22T06:42:04.583Z,13.25
2022-08-22T06:44:35.448Z,11.15
2022-08-22T06:47:07.618Z,9.65
2022-08-22T06:49:37.354Z,15.88
2022-08-22T06:52:12.200Z,17.58
2022-08-22T06:54:43.398Z,9.50
2022-08-22T06:57:42.275Z,10.63
2022-08-22T07:00:14.102Z,12.38
2022-08-22T07:02:44.783Z,12.88
2022-08-22T07:05:18.769Z,12.82
2022-08-22T07:07:45.690Z,11.77
2022-08-22T07:10:21.831Z,11.35
2022-08-22T07:12:54.921Z,9.10
2022-08-22T07:15:40.522Z,13.13
2022-08-22T07:18:16.841Z,13.40
2022-08-22T07:23:31.567Z,11.23
2022-08-22T07:26:39.500Z,15.70
2022-08-22T07:29:14.118Z,11.75
2022-08-22T07:32:06.140Z,9.10
2022-08-22T07:35:03.057Z,17.95
2022-08-22T07:37:44.810Z,14.20
2022-08-22T07:40:11.564Z,13.15
2022-08-22T07:42:51.589Z,13.30
2022-08-22T07:45:31.917Z,17.83
2022-08-22T07:48:25.595Z,13.18
2022-08-22T07:51:07.828Z,15.40
2022-08-22T07:53:46.835Z,16.95
2022-08-22T07:56:44.939Z,14.75
2022-08-22T07:59:18.110Z,13.25
2022-08-22T08:01:51.210Z,15.70
2022-08-22T08:04:21.677Z,13.52
2022-08-22T08:06:54.946Z,8.98
2022-08-22T08:09:22.394Z,19.23
2022-08-22T08:11:53.148Z,13.90
2022-08-22T08:14:23.390Z,13.50
2022-08-22T08:17:13.284Z,13.35
2022-08-22T08:19:42.050Z,12.65
2022-08-22T08:22:16.910Z,13.55
2022-08-22T08:24:45.103Z,14.15
2022-08-22T08:27:38.889Z,17.00
2022-08-22T08:30:15.380Z,15.80
2022-08-22T08:32:46.078Z,11.30
2022-08-22T08:35:25.619Z,14.40
2022-08-22T08:37:58.701Z,8.32
2022-08-22T08:40:51.374Z,11.23
2022-08-22T08:43:59.119Z,9.45
2022-08-22T08:46:31.767Z,10.95
2022-08-22T08:49:06.530Z,9.70
2022-08-22T08:52:06.945Z,8.07
2022-08-22T08:55:10.533Z,8.98
2022-08-22T08:58:23.991Z,8.75
2022-08-22T09:01:32.518Z,6.75
2022-08-22T09:04:42.437Z,9.18
2022-08-22T09:07:53.451Z,7.80
2022-08-22T09:10:39.583Z,9.27
2022-08-22T09:13:37.610Z,7.55
2022-08-22T09:16:34.723Z,12.65
2022-08-22T09:19:23.611Z,10.07
2022-08-22T09:22:16.167Z,7.22
2022-08-22T09:25:30.801Z,8.23
2022-08-22T09:28:29.462Z,6.25
2022-08-22T09:31:16.966Z,7.13
2022-08-22T09:34:27.262Z,9.20
2022-08-22T09:37:23.825Z,7.97
2022-08-22T09:43:21.433Z,7.72
2022-08-22T09:46:01.998Z,7.82
2022-08-22T09:48:57.882Z,7.20
2022-08-22T09:51:55.140Z,7.40
2022-08-22T09:54:35.422Z,6.90
2022-08-22T09:57:14.023Z,9.43
2022-08-22T10:00:22.141Z,7.70
2022-08-22T10:03:09.037Z,8.10
2022-08-22T10:06:09.200Z,7.95
2022-08-22T10:09:06.209Z,8.20
2022-08-22T10:14:26.178Z,9.52
2022-08-22T10:20:25.182Z,6.68
2022-08-22T10:23:33.508Z,8.68
2022-08-22T10:26:26.461Z,8.65
2022-08-22T10:29:03.469Z,7.93
2022-08-22T10:31:58.874Z,8.55
2022-08-22T10:34:43.385Z,7.30
2022-08-22T10:37:36.745Z,7.75
2022-08-22T10:40:36.087Z,6.80
2022-08-22T10:43:15.009Z,8.65
2022-08-22T10:45:47.873Z,8.57
2022-08-22T10:48:40.475Z,6.68
2022-08-22T10:51:43.950Z,9.18
2022-08-22T10:54:27.126Z,7.05
2022-08-22T10:57:24.115Z,7.60
2022-08-22T11:00:14.166Z,7.43
2022-08-22T11:03:15.162Z,9.32
2022-08-22T11:06:00.179Z,8.05
2022-08-22T11:08:34.788Z,9.13
2022-08-22T11:11:07.515Z,7.05
2022-08-22T11:13:46.518Z,11.48
2022-08-22T11:16:26.085Z,15.32
2022-08-22T11:19:27.180Z,7.30
2022-08-22T11:22:34.023Z,7.97
2022-08-22T11:25:38.511Z,8.98
2022-08-22T11:28:38.736Z,12.70
2022-08-22T11:31:28.206Z,8.32
2022-08-22T11:34:01.657Z,7.32
2022-08-22T11:36:46.874Z,7.90
2022-08-22T11:39:34.663Z,8.30
2022-08-22T11:42:22.148Z,10.60
2022-08-22T11:44:57.254Z,9.80
2022-08-22T11:47:36.823Z,13.52
2022-08-22T11:50:29.711Z,10.88
2022-08-22T11:53:14.403Z,9.57
2022-08-22T11:56:14.223Z,8.30
2022-08-22T11:59:02.619Z,10.75
2022-08-22T12:01:55.724Z,11.50
2022-08-22T12:04:43.983Z,6.60
2022-08-22T12:07:22.266Z,11.23
2022-08-22T12:10:13.802Z,7.15
2022-08-22T12:13:01.171Z,12.35
2022-08-22T12:15:53.879Z,7.43
2022-08-22T12:18:29.918Z,10.77
2022-08-22T12:21:18.200Z,8.88
2022-08-22T12:24:19.297Z,11.20
2022-08-22T12:27:14.193Z,7.90
2022-08-22T12:29:55.925Z,9.20
2022-08-22T12:33:03.419Z,12.85
2022-08-22T12:35:44.518Z,9.45
2022-08-22T12:38:41.727Z,6.53
2022-08-22T12:41:35.040Z,10.50
2022-08-22T12:44:17.744Z,9.18
2022-08-22T12:47:09.832Z,8.57
2022-08-22T12:49:56.001Z,6.90
2022-08-22T12:53:02.692Z,8.87
2022-08-22T12:55:51.003Z,7.43
2022-08-22T12:58:35.462Z,10.05
2022-08-22T13:01:07.043Z,10.73
2022-08-22T13:03:42.171Z,12.07
2022-08-22T13:06:33.654Z,10.63
2022-08-22T13:09:01.629Z,12.73
2022-08-22T13:11:35.934Z,6.57
2022-08-22T13:14:03.750Z,12.73
2022-08-22T13:16:49.010Z,10.65
2022-08-22T13:19:24.847Z,8.73
2022-08-22T13:22:11.533Z,9.57
2022-08-22T13:24:52.487Z,11.35
2022-08-22T13:27:34.012Z,10.48
2022-08-22T13:30:07.213Z,9.07
2022-08-22T13:32:47.399Z,8.55
2022-08-22T13:35:23.947Z,9.25
2022-08-22T13:38:02.883Z,10.00
2022-08-22T13:40:35.043Z,10.88
2022-08-22T13:43:11.900Z,8.02
2022-08-22T13:45:41.764Z,10.98
2022-08-22T13:48:16.428Z,10.10
2022-08-22T13:51:08.061Z,11.70
2022-08-22T13:54:00.643Z,9.10
2022-08-22T13:57:02.733Z,5.38
2022-08-22T14:00:11.525Z,8.68
2022-08-22T14:03:09.551Z,9.65
2022-08-22T14:05:53.239Z,9.07
2022-08-22T14:08:25.755Z,13.20
2022-08-22T14:11:13.408Z,10.52
2022-08-22T14:13:55.401Z,11.55
2022-08-22T14:16:31.649Z,12.77
2022-08-22T14:19:06.120Z,7.72
2022-08-22T14:21:55.420Z,11.05
2022-08-22T14:24:45.623Z,5.68
2022-08-22T14:27:29.346Z,9.23
2022-08-22T14:30:01.358Z,9.00
2022-08-22T14:32:44.566Z,9.73
2022-08-22T14:35:35.271Z,10.05
2022-08-22T14:38:39.214Z,9.07
2022-08-22T14:41:52.710Z,9.18
2022-08-22T14:44:44.475Z,13.65
2022-08-22T14:47:55.553Z,10.70
2022-08-22T14:50:45.227Z,9.45
2022-08-22T14:53:22.275Z,7.00
2022-08-22T14:56:24.825Z,8.13
2022-08-22T14:58:58.435Z,7.78
2022-08-22T15:01:29.931Z,6.50
2022-08-22T15:04:02.477Z,9.60
2022-08-22T15:06:51.096Z,8.63
2022-08-22T15:09:42.001Z,8.90
2022-08-22T15:12:42.699Z,9.35
2022-08-22T15:15:41.127Z,9.77
2022-08-22T15:18:18.520Z,6.87
2022-08-22T15:20:52.137Z,6.88
2022-08-22T15:23:23.309Z,9.18
2022-08-22T15:26:13.302Z,9.43
2022-08-22T15:28:53.037Z,11.88
2022-08-22T15:31:21.102Z,8.40
2022-08-22T15:33:48.779Z,8.85
2022-08-22T15:36:22.569Z,6.88
2022-08-22T15:38:57.171Z,8.57
2022-08-22T15:41:36.990Z,11.65
2022-08-22T15:44:33.414Z,11.27
2022-08-22T15:47:31.566Z,9.90
2022-08-22T15:50:27.145Z,9.20
2022-08-22T15:53:14.931Z,8.55
2022-08-22T15:56:05.547Z,10.52
2022-08-22T15:58:37.899Z,14.35
2022-08-22T16:01:19.990Z,7.63
2022-08-22T16:04:06.089Z,8.35
2022-08-22T16:07:01.222Z,10.55
2022-08-22T16:09:48.129Z,8.88
2022-08-22T16:15:05.245Z,8.95
2022-08-22T16:17:40.021Z,8.25
2022-08-22T16:20:19.222Z,9.63
2022-08-22T16:23:06.734Z,8.82
2022-08-22T16:25:45.408Z,8.48
2022-08-22T16:29:02.546Z,15.32
2022-08-22T16:31:39.688Z,5.97
2022-08-22T16:34:21.167Z,9.43
2022-08-22T16:37:19.538Z,8.40
2022-08-22T16:39:58.595Z,8.50
2022-08-22T16:42:27.473Z,8.95
2022-08-22T16:45:04.977Z,11.50
2022-08-22T16:47:41.474Z,7.25
2022-08-22T16:50:23.284Z,12.77
2022-08-22T16:52:57.684Z,9.00
2022-08-22T16:55:30.355Z,7.93
2022-08-22T16:58:21.306Z,7.28
2022-08-22T17:01:03.019Z,9.95
2022-08-22T17:03:32.489Z,10.75
2022-08-22T17:06:15.240Z,10.73
2022-08-22T17:09:19.821Z,10.45
2022-08-22T17:11:52.736Z,9.68
2022-08-22T17:14:42.455Z,7.57
2022-08-22T17:17:32.122Z,8.10
2022-08-22T17:20:21.228Z,9.65
2022-08-22T17:23:05.449Z,6.65
2022-08-22T17:25:48.344Z,10.50
2022-08-22T17:28:34.382Z,6.55
2022-08-22T17:31:17.066Z,9.17
2022-08-22T17:34:04.522Z,8.75
2022-08-22T17:36:31.409Z,8.70
2022-08-22T17:39:15.784Z,8.98
2022-08-22T17:41:59.707Z,8.18
2022-08-22T17:45:01.169Z,12.73
2022-08-22T17:47:45.623Z,11.52
2022-08-22T17:50:22.550Z,10.43
2022-08-22T17:53:16.217Z,10.38
2022-08-22T17:56:03.101Z,10.35
2022-08-22T17:58:46.289Z,11.27
2022-08-22T18:01:38.946Z,10.63
2022-08-22T18:04:12.343Z,6.65
2022-08-22T18:06:49.288Z,8.27
2022-08-22T18:09:37.937Z,5.75
2022-08-22T18:12:17.893Z,12.40
2022-08-22T18:14:52.383Z,6.13
2022-08-22T18:17:48.882Z,8.05
2022-08-22T18:20:39.358Z,10.05
2022-08-22T18:23:35.794Z,13.23
2022-08-22T18:26:31.179Z,12.30
2022-08-22T18:29:19.307Z,9.82
2022-08-22T18:32:07.213Z,16.40
2022-08-22T18:34:46.682Z,9.65
2022-08-22T18:37:35.778Z,8.35
2022-08-22T18:40:08.421Z,6.85
2022-08-22T18:42:57.684Z,9.27
2022-08-22T18:45:46.036Z,8.30
2022-08-22T18:48:28.714Z,8.30
2022-08-22T18:51:38.248Z,8.50
2022-08-22T18:54:05.409Z,8.45
2022-08-22T18:56:50.378Z,9.60
2022-08-22T18:59:26.713Z,9.55
2022-08-22T19:02:11.640Z,7.57
2022-08-22T19:04:53.355Z,7.20
2022-08-22T19:07:54.503Z,8.75
2022-08-22T19:10:31.720Z,8.80
2022-08-22T19:13:24.059Z,15.35
2022-08-22T19:16:06.117Z,7.50
2022-08-22T19:18:39.051Z,9.07
2022-08-22T19:21:49.149Z,8.20
2022-08-22T19:24:29.122Z,8.25
2022-08-22T19:27:12.290Z,9.00
2022-08-22T19:29:39.757Z,10.23
2022-08-22T19:32:12.726Z,8.70
2022-08-22T19:34:47.671Z,7.90
2022-08-22T19:37:31.043Z,8.73
2022-08-22T19:40:11.550Z,7.10
2022-08-22T19:42:41.401Z,8.60
2022-08-22T19:45:22.111Z,7.65
2022-08-22T19:48:13.226Z,8.75
2022-08-22T19:50:42.039Z,10.02
2022-08-22T19:53:33.671Z,11.70
2022-08-22T19:56:36.570Z,7.55
2022-08-22T19:59:36.734Z,8.20
2022-08-22T20:02:23.995Z,10.73
2022-08-22T20:05:28.778Z,9.80
2022-08-22T20:08:33.961Z,6.05
2022-08-22T20:11:37.709Z,9.35
2022-08-22T20:14:29.921Z,9.23
2022-08-22T20:17:25.473Z,6.88
2022-08-22T20:23:04.646Z,12.80
2022-08-22T20:25:50.138Z,9.05
2022-08-22T20:28:46.897Z,9.48
2022-08-22T20:31:22.958Z,7.40
2022-08-22T20:33:55.324Z,11.75
2022-08-22T20:36:27.604Z,7.88
2022-08-22T20:39:01.448Z,10.32
2022-08-22T20:41:36.960Z,8.70
2022-08-22T20:44:30.846Z,7.97
2022-08-22T20:47:06.621Z,8.77
2022-08-22T20:49:43.054Z,12.52
2022-08-22T20:52:21.353Z,9.35
2022-08-22T20:55:04.616Z,10.20
2022-08-22T20:57:33.393Z,6.60
2022-08-22T21:00:12.981Z,9.10
2022-08-22T21:02:55.202Z,9.27
2022-08-22T21:05:25.646Z,8.23
2022-08-22T21:08:16.272Z,11.02
2022-08-22T21:11:01.543Z,9.05
2022-08-22T21:13:36.531Z,8.38
2022-08-22T21:16:20.060Z,9.90
2022-08-22T21:18:52.667Z,10.97
2022-08-22T21:21:34.291Z,9.70
2022-08-22T21:24:07.005Z,7.93
2022-08-22T21:26:45.943Z,11.45
2022-08-22T21:29:12.553Z,12.65
2022-08-22T21:31:49.102Z,8.25
2022-08-22T21:34:32.463Z,8.00
2022-08-22T21:37:09.353Z,8.80
2022-08-22T21:39:41.916Z,7.85
2022-08-22T21:42:15.498Z,12.90
2022-08-22T21:44:54.219Z,9.75
2022-08-22T21:47:30.599Z,10.25
2022-08-22T21:50:23.168Z,8.82
2022-08-22T21:52:55.676Z,10.50
2022-08-22T21:55:28.311Z,9.60
2022-08-22T21:58:36.971Z,11.82
2022-08-22T22:01:23.185Z,7.82
2022-08-22T22:03:51.826Z,6.68
2022-08-22T22:06:18.550Z,8.93
2022-08-22T22:08:45.357Z,12.95
2022-08-22T22:11:14.374Z,7.93
2022-08-22T22:13:41.481Z,10.57
2022-08-22T22:16:11.942Z,10.00
2022-08-22T22:18:39.274Z,10.40
2022-08-22T22:21:06.306Z,9.38
2022-08-22T22:23:33.074Z,8.13
2022-08-22T22:26:02.420Z,10.73
2022-08-22T22:28:33.454Z,8.65
2022-08-22T22:31:00.421Z,10.55
2022-08-22T22:33:30.413Z,9.93
2022-08-22T22:36:03.069Z,8.80
2022-08-22T22:38:29.761Z,8.70
2022-08-22T22:40:56.668Z,8.07
2022-08-22T22:43:23.659Z,14.35
2022-08-22T22:45:50.426Z,9.45
2022-08-22T22:48:18.182Z,9.57
2022-08-22T22:50:54.756Z,10.60
2022-08-22T22:53:33.755Z,7.85
2022-08-22T22:56:06.798Z,7.35
2022-08-22T22:58:36.326Z,13.57
2022-08-22T23:01:11.486Z,10.15
2022-08-22T23:03:38.539Z,8.88
2022-08-22T23:06:20.348Z,9.48
2022-08-22T23:08:48.617Z,14.27
2022-08-22T23:11:20.982Z,11.25
2022-08-22T23:13:48.494Z,8.68
2022-08-22T23:16:19.289Z,9.98
2022-08-22T23:18:46.667Z,9.95
2022-08-22T23:21:16.438Z,8.13
2022-08-22T23:23:43.641Z,11.40
2022-08-22T23:26:11.193Z,14.43
2022-08-22T23:28:37.908Z,11.77
2022-08-22T23:31:11.603Z,11.68
2022-08-22T23:33:38.629Z,10.57
2022-08-22T23:36:32.193Z,12.07
2022-08-22T23:38:58.937Z,9.77
2022-08-22T23:41:26.577Z,11.23
2022-08-22T23:43:54.990Z,14.10
2022-08-22T23:46:24.119Z,10.65
2022-08-22T23:48:51.263Z,10.02
2022-08-22T23:51:22.994Z,12.07
2022-08-22T23:53:50.698Z,13.95
2022-08-22T23:56:19.533Z,9.70
2022-08-22T23:58:47.472Z,10.18
